Terminal Aerodrome Forecast
Issued by NWS

Home | Current Version | Previous Version | Text Only | Print | Product List | Glossary On
Versions: 1 2 3 4 5 6 7 8 9 10 11 12 13 14 15 16 17 18 19 20 21 22 23
000
FTUS44 KMOB 170500
TAFBFM
TAF
KBFM 170539Z 1706/1806 30003KT P6SM FEW010 BKN200
      TEMPO 1711/1713 4SM BR SCT010
     FM171500 04004KT P6SM SCT250
     FM171800 15005KT P6SM SCT045
     FM180000 VRB03KT P6SM SKC=

USA.gov is the U.S. government's official web portal to all federal, state and local government web resources and services.